KTTN/TTN METAR and TAF weather

Enter ICAO airport designator
Station Type Date Time Source
KTTN METAR 2019/08/24 22:53 UTC NOAA

KTTN 242253Z 03007KT 10SM CLR 22/10 A3017 RMK AO2 SLP210 T02170100


Station Type Date Time Source
KTTN Decoded METAR 2019/08/24 22:53 UTC NOAA

Station name not available
Aug 24, 2019 - 06:53 PM EDT / 2019.08.24 2253 UTC
Wind: from the NNE (030 degrees) at 8 MPH (7 KT):0
Visibility: 10 mile(s):0
Sky conditions: clear
Temperature: 71.1 F (21.7 C)
Dew Point: 50.0 F (10.0 C)
Relative Humidity: 47%
Pressure (altimeter): 30.17 in. Hg (1021 hPa)
ob: KTTN 242253Z 03007KT 10SM CLR 22/10 A3017 RMK AO2 SLP210 T02170100
cycle: 23

Station Type Date Time Source
KTTN TAF 2019/08/24 20:04 UTC NOAA

TAF
AMD KTTN 242001Z 2420/2518 01007KT P6SM SCT060
FM250000 06006KT P6SM SKC
FM251000 05008KT P6SM SKC
FM251500 07012KT P6SM BKN040

Example: see airport list